createdAt,value
2019-02-17T00:00:20.829Z,1010.18
2019-02-17T00:01:30.885Z,1010.17
2019-02-17T00:02:40.979Z,1010.17
2019-02-17T00:03:51.068Z,1010.13
2019-02-17T00:05:02.991Z,1010.08
2019-02-17T00:06:12.802Z,1010.11
2019-02-17T00:07:22.889Z,1010.09
2019-02-17T00:08:33.003Z,1010.1
2019-02-17T00:09:42.811Z,1010.07
2019-02-17T00:10:52.861Z,1010.06
2019-02-17T00:12:02.935Z,1010.07
2019-02-17T00:13:13.023Z,1010.04
2019-02-17T00:14:23.949Z,1010.07
2019-02-17T00:15:33.583Z,1009.96
2019-02-17T00:16:43.679Z,1009.98
2019-02-17T00:17:53.752Z,1009.99
2019-02-17T00:19:03.557Z,1010
2019-02-17T00:20:13.621Z,1009.95
2019-02-17T00:21:23.686Z,1009.97
2019-02-17T00:22:33.752Z,1009.98
2019-02-17T00:23:43.806Z,1010.02
2019-02-17T00:24:53.858Z,1010.01
2019-02-17T00:26:04.357Z,1010
2019-02-17T00:27:14.441Z,1010.01
2019-02-17T00:28:24.571Z,1010
2019-02-17T00:29:34.651Z,1009.97
2019-02-17T00:30:44.719Z,1009.95
2019-02-17T00:31:54.767Z,1010
2019-02-17T00:33:04.317Z,1009.95
2019-02-17T00:34:14.379Z,1009.93
2019-02-17T00:35:24.467Z,1009.95
2019-02-17T00:36:34.510Z,1009.9
2019-02-17T00:37:44.354Z,1009.93
2019-02-17T00:38:54.438Z,1009.94
2019-02-17T00:40:04.514Z,1009.92
2019-02-17T00:41:14.807Z,1009.95
2019-02-17T00:42:24.864Z,1009.88
2019-02-17T00:43:35.132Z,1009.91
2019-02-17T00:44:45.192Z,1009.95
2019-02-17T00:45:54.723Z,1009.89
2019-02-17T00:47:04.983Z,1009.92
2019-02-17T00:48:14.787Z,1009.94
2019-02-17T00:49:24.895Z,1009.92
2019-02-17T00:50:34.947Z,1009.94
2019-02-17T00:51:44.753Z,1009.93
2019-02-17T00:52:54.864Z,1009.94
2019-02-17T00:54:04.922Z,1009.89
2019-02-17T00:55:14.984Z,1009.87
2019-02-17T00:56:25.051Z,1009.91
2019-02-17T00:57:35.146Z,1009.94
2019-02-17T00:58:45.211Z,1009.94
2019-02-17T00:59:55.369Z,1009.88
2019-02-17T01:01:08.397Z,1009.87
2019-02-17T01:02:18.443Z,1009.92
2019-02-17T01:03:28.497Z,1009.94
2019-02-17T01:04:38.546Z,1009.92
2019-02-17T01:05:48.598Z,1010
2019-02-17T01:06:58.741Z,1009.94
2019-02-17T01:08:11.448Z,1009.96
2019-02-17T01:09:21.498Z,1009.96
2019-02-17T01:10:31.290Z,1009.93
2019-02-17T01:11:41.361Z,1009.92
2019-02-17T01:12:51.466Z,1009.9
2019-02-17T01:14:03.864Z,1009.86
2019-02-17T01:15:13.913Z,1009.86
2019-02-17T01:16:25.011Z,1009.87
2019-02-17T01:17:35.010Z,1009.83
2019-02-17T01:18:44.573Z,1009.83
2019-02-17T01:19:55.084Z,1009.79
2019-02-17T01:21:05.167Z,1009.76
2019-02-17T01:22:15.916Z,1009.83
2019-02-17T01:23:25.999Z,1009.78
2019-02-17T01:24:36.143Z,1009.78
2019-02-17T01:25:45.948Z,1009.78
2019-02-17T01:26:56.016Z,1009.8
2019-02-17T01:28:08.943Z,1009.75
2019-02-17T01:29:20.607Z,1009.76
2019-02-17T01:30:31.088Z,1009.76
2019-02-17T01:31:41.158Z,1009.76
2019-02-17T01:32:51.217Z,1009.76
2019-02-17T01:34:01.278Z,1009.78
2019-02-17T01:35:11.523Z,1009.75
2019-02-17T01:36:21.579Z,1009.81
2019-02-17T01:37:31.682Z,1009.79
2019-02-17T01:38:41.280Z,1009.81
2019-02-17T01:39:51.117Z,1009.79
2019-02-17T01:41:01.205Z,1009.82
2019-02-17T01:42:11.297Z,1009.82
2019-02-17T01:43:21.352Z,1009.77
2019-02-17T01:44:31.418Z,1009.77
2019-02-17T01:45:41.456Z,1009.77
2019-02-17T01:46:51.501Z,1009.76
2019-02-17T01:48:01.547Z,1009.79
2019-02-17T01:49:11.598Z,1009.74
2019-02-17T01:50:21.157Z,1009.75
2019-02-17T01:51:30.690Z,1009.76
2019-02-17T01:52:40.497Z,1009.77
2019-02-17T01:53:50.555Z,1009.78
2019-02-17T01:55:00.656Z,1009.72
2019-02-17T01:56:10.193Z,1009.72
2019-02-17T01:57:20.290Z,1009.74
2019-02-17T01:58:30.696Z,1009.7
2019-02-17T01:59:40.262Z,1009.68
2019-02-17T02:00:50.315Z,1009.67
2019-02-17T02:02:00.357Z,1009.67
2019-02-17T02:03:10.422Z,1009.66
2019-02-17T02:04:20.470Z,1009.67
2019-02-17T02:05:30.528Z,1009.69
2019-02-17T02:06:40.568Z,1009.66
2019-02-17T02:07:50.472Z,1009.7
2019-02-17T02:09:02.870Z,1009.69
2019-02-17T02:10:12.926Z,1009.68
2019-02-17T02:11:23.037Z,1009.66
2019-02-17T02:12:33.117Z,1009.67
2019-02-17T02:13:43.147Z,1009.6
2019-02-17T02:14:53.200Z,1009.64
2019-02-17T02:16:04.255Z,1009.61
2019-02-17T02:17:14.397Z,1009.63
2019-02-17T02:18:24.209Z,1009.58
2019-02-17T02:19:34.364Z,1009.58
2019-02-17T02:20:44.436Z,1009.59
2019-02-17T02:21:54.502Z,1009.57
2019-02-17T02:23:04.390Z,1009.51
2019-02-17T02:24:14.432Z,1009.52
2019-02-17T02:25:24.705Z,1009.54
2019-02-17T02:26:34.741Z,1009.54
2019-02-17T02:27:44.801Z,1009.56
2019-02-17T02:28:55.059Z,1009.56
2019-02-17T02:30:06.141Z,1009.55
2019-02-17T02:31:15.968Z,1009.57
2019-02-17T02:32:26.038Z,1009.55
2019-02-17T02:33:35.866Z,1009.59
2019-02-17T02:34:46.990Z,1009.62
2019-02-17T02:35:57.080Z,1009.57
2019-02-17T02:37:07.203Z,1009.59
2019-02-17T02:38:17.366Z,1009.59
2019-02-17T02:39:27.434Z,1009.59
2019-02-17T02:40:37.486Z,1009.58
2019-02-17T02:41:47.547Z,1009.56
2019-02-17T02:42:57.607Z,1009.59
2019-02-17T02:44:07.605Z,1009.6
2019-02-17T02:45:17.446Z,1009.58
2019-02-17T02:46:27.346Z,1009.58
2019-02-17T02:47:37.428Z,1009.56
2019-02-17T02:48:47.702Z,1009.57
2019-02-17T02:49:57.743Z,1009.57
2019-02-17T02:51:08.646Z,1009.54
2019-02-17T02:52:18.717Z,1009.53
2019-02-17T02:53:28.802Z,1009.58
2019-02-17T02:54:39.089Z,1009.55
2019-02-17T02:55:49.174Z,1009.55
2019-02-17T02:56:59.219Z,1009.6
2019-02-17T02:58:09.282Z,1009.54
2019-02-17T02:59:19.363Z,1009.59
2019-02-17T03:00:29.179Z,1009.53
2019-02-17T03:01:39.264Z,1009.53
2019-02-17T03:33:50.699Z,1009.57
2019-02-17T03:35:03.526Z,1009.53
2019-02-17T03:36:13.633Z,1009.53
2019-02-17T03:37:23.706Z,1009.54
2019-02-17T03:38:33.482Z,1009.52
2019-02-17T03:39:43.267Z,1009.52
2019-02-17T03:40:53.352Z,1009.56
2019-02-17T03:42:03.147Z,1009.53
2019-02-17T03:43:13.203Z,1009.54
2019-02-17T03:44:23.250Z,1009.52
2019-02-17T03:45:33.648Z,1009.56
2019-02-17T03:46:44.588Z,1009.53
2019-02-17T03:47:54.645Z,1009.52
2019-02-17T03:49:05.887Z,1009.52
2019-02-17T03:50:16.021Z,1009.56
2019-02-17T03:51:26.129Z,1009.54
2019-02-17T03:52:36.529Z,1009.5
2019-02-17T03:53:46.696Z,1009.52
2019-02-17T03:54:56.807Z,1009.51
2019-02-17T03:56:08.469Z,1009.47
2019-02-17T03:57:18.327Z,1009.5
2019-02-17T03:58:28.383Z,1009.49
2019-02-17T03:59:38.171Z,1009.45
2019-02-17T04:00:48.447Z,1009.41
2019-02-17T04:01:58.292Z,1009.42
2019-02-17T04:03:08.826Z,1009.4
2019-02-17T04:04:18.868Z,1009.43
2019-02-17T04:05:28.943Z,1009.38
2019-02-17T04:06:38.984Z,1009.39
2019-02-17T04:07:49.145Z,1009.41
2019-02-17T04:08:59.249Z,1009.41
2019-02-17T04:10:11.252Z,1009.41
2019-02-17T04:11:21.291Z,1009.4
2019-02-17T04:12:31.355Z,1009.35
2019-02-17T04:13:41.154Z,1009.39
2019-02-17T04:14:51.282Z,1009.38
2019-02-17T04:16:01.643Z,1009.39
2019-02-17T04:17:11.698Z,1009.4
2019-02-17T04:18:21.765Z,1009.41
2019-02-17T04:19:31.816Z,1009.45
2019-02-17T04:20:41.903Z,1009.43
2019-02-17T04:21:52.011Z,1009.41
2019-02-17T04:23:02.077Z,1009.39
2019-02-17T04:24:12.231Z,1009.43
2019-02-17T04:25:22.276Z,1009.38
2019-02-17T04:26:32.344Z,1009.38
2019-02-17T04:27:42.404Z,1009.34
2019-02-17T04:28:52.427Z,1009.33
2019-02-17T04:30:03.737Z,1009.32
2019-02-17T04:31:13.900Z,1009.33
2019-02-17T04:32:23.979Z,1009.34
2019-02-17T04:33:34.031Z,1009.34
2019-02-17T04:34:43.848Z,1009.33
2019-02-17T04:35:53.978Z,1009.3
2019-02-17T04:37:04.053Z,1009.32
2019-02-17T04:38:14.111Z,1009.35
2019-02-17T04:39:24.172Z,1009.33
2019-02-17T04:40:34.212Z,1009.34
2019-02-17T04:41:44.249Z,1009.37
2019-02-17T04:42:54.607Z,1009.34
2019-02-17T04:44:04.720Z,1009.32
2019-02-17T04:45:14.770Z,1009.36
2019-02-17T04:46:24.897Z,1009.34
2019-02-17T04:47:34.949Z,1009.31
2019-02-17T04:48:45.094Z,1009.32
2019-02-17T04:49:55.201Z,1009.37
2019-02-17T04:51:05.235Z,1009.36
2019-02-17T04:52:15.277Z,1009.37
2019-02-17T04:53:25.072Z,1009.36
2019-02-17T04:54:35.104Z,1009.36
2019-02-17T04:55:45.892Z,1009.36
2019-02-17T04:56:55.727Z,1009.36
2019-02-17T04:58:08.578Z,1009.36
2019-02-17T04:59:18.654Z,1009.41
2019-02-17T05:00:39.166Z,1009.43
2019-02-17T05:01:50.640Z,1009.41
2019-02-17T05:03:01.447Z,1009.42
2019-02-17T05:04:11.271Z,1009.42
2019-02-17T05:05:21.370Z,1009.44
2019-02-17T05:06:31.249Z,1009.42
2019-02-17T05:07:43.889Z,1009.47
2019-02-17T05:08:53.961Z,1009.49
2019-02-17T05:10:06.155Z,1009.47
2019-02-17T05:11:15.710Z,1009.48
2019-02-17T05:12:25.753Z,1009.47
2019-02-17T05:13:35.890Z,1009.51
2019-02-17T05:14:45.956Z,1009.49
2019-02-17T05:15:56.021Z,1009.51
2019-02-17T05:17:06.767Z,1009.52
2019-02-17T05:18:16.734Z,1009.48
2019-02-17T05:19:26.816Z,1009.52
2019-02-17T05:20:36.939Z,1009.54
2019-02-17T05:21:47.206Z,1009.54
2019-02-17T05:22:57.256Z,1009.57
2019-02-17T05:24:07.381Z,1009.56
2019-02-17T05:25:17.425Z,1009.58
2019-02-17T05:26:27.226Z,1009.55
2019-02-17T05:27:37.267Z,1009.59
2019-02-17T05:28:47.642Z,1009.59
2019-02-17T05:29:59.591Z,1009.59
2019-02-17T05:31:09.394Z,1009.64
2019-02-17T05:32:19.450Z,1009.66
2019-02-17T05:33:29.524Z,1009.68
2019-02-17T05:34:39.547Z,1009.69
2019-02-17T05:35:49.734Z,1009.75
2019-02-17T05:36:59.977Z,1009.77
2019-02-17T05:38:10.045Z,1009.8
2019-02-17T05:39:20.151Z,1009.87
2019-02-17T05:40:29.449Z,1009.85
2019-02-17T05:41:41.909Z,1009.89
2019-02-17T05:42:51.979Z,1009.88
2019-02-17T05:44:02.038Z,1009.87
2019-02-17T05:45:12.130Z,1009.84
2019-02-17T05:46:21.978Z,1009.87
2019-02-17T05:47:32.049Z,1009.84
2019-02-17T05:48:42.100Z,1009.84
2019-02-17T05:49:52.143Z,1009.89
2019-02-17T05:51:02.208Z,1009.88
2019-02-17T05:52:12.282Z,1009.94
2019-02-17T05:53:22.416Z,1009.91
2019-02-17T05:54:32.574Z,1009.91
2019-02-17T05:55:42.511Z,1009.95
2019-02-17T05:56:52.317Z,1009.92
2019-02-17T05:58:02.368Z,1009.97
2019-02-17T05:59:12.557Z,1009.97
2019-02-17T06:00:22.634Z,1009.95
2019-02-17T06:01:32.446Z,1009.99
2019-02-17T06:02:42.501Z,1010
2019-02-17T06:03:52.295Z,1009.98
2019-02-17T06:05:02.732Z,1010.03
2019-02-17T06:06:14.847Z,1010.06
2019-02-17T06:07:25.418Z,1010.04
2019-02-17T06:08:35.479Z,1010.01
2019-02-17T06:09:45.269Z,1010.02
2019-02-17T06:10:55.329Z,1009.96
2019-02-17T06:12:04.889Z,1009.97
2019-02-17T06:13:14.945Z,1010.01
2019-02-17T06:14:25.055Z,1010.02
2019-02-17T06:15:35.101Z,1010.06
2019-02-17T06:16:45.176Z,1010.09
2019-02-17T06:17:55.236Z,1010.04
2019-02-17T06:19:05.312Z,1010.09
2019-02-17T06:20:15.107Z,1010.11
2019-02-17T06:21:24.926Z,1010.14
2019-02-17T06:22:35.027Z,1010.12
2019-02-17T06:23:45.071Z,1010.17
2019-02-17T06:24:54.624Z,1010.16
2019-02-17T06:26:04.434Z,1010.17
2019-02-17T06:27:14.356Z,1010.15
2019-02-17T06:28:24.403Z,1010.15
2019-02-17T06:29:34.558Z,1010.19
2019-02-17T06:30:44.604Z,1010.24
2019-02-17T06:31:54.130Z,1010.22
2019-02-17T06:33:04.267Z,1010.26
2019-02-17T06:34:13.813Z,1010.29
2019-02-17T06:35:23.349Z,1010.24
2019-02-17T06:36:33.418Z,1010.2
2019-02-17T06:37:46.150Z,1010.2
2019-02-17T06:38:56.436Z,1010.21
2019-02-17T06:40:06.755Z,1010.21
2019-02-17T06:41:16.591Z,1010.23
2019-02-17T06:42:26.628Z,1010.28
2019-02-17T06:43:36.694Z,1010.23
2019-02-17T06:44:47.067Z,1010.25
2019-02-17T06:45:57.427Z,1010.26
2019-02-17T06:47:07.506Z,1010.25
2019-02-17T06:48:17.566Z,1010.25
2019-02-17T06:49:27.628Z,1010.24
2019-02-17T06:50:37.694Z,1010.21
2019-02-17T06:51:47.892Z,1010.25
2019-02-17T06:52:58.197Z,1010.23
2019-02-17T06:54:09.496Z,1010.23
2019-02-17T06:55:19.046Z,1010.24
2019-02-17T06:56:28.862Z,1010.25
2019-02-17T06:57:38.928Z,1010.29
2019-02-17T06:58:48.717Z,1010.29
2019-02-17T06:59:58.761Z,1010.32
2019-02-17T07:01:09.611Z,1010.36
2019-02-17T07:02:29.630Z,1010.39
2019-02-17T07:03:39.681Z,1010.42
2019-02-17T07:04:49.887Z,1010.39
2019-02-17T07:05:59.682Z,1010.41
2019-02-17T07:07:09.846Z,1010.35
2019-02-17T07:08:20.015Z,1010.4
2019-02-17T07:09:30.238Z,1010.42
2019-02-17T07:10:40.294Z,1010.45
2019-02-17T07:11:50.127Z,1010.47
2019-02-17T07:13:02.220Z,1010.46
2019-02-17T07:14:12.284Z,1010.5
2019-02-17T07:15:22.086Z,1010.52
2019-02-17T07:16:31.640Z,1010.52
2019-02-17T07:17:41.699Z,1010.53
2019-02-17T07:18:51.788Z,1010.52
2019-02-17T07:20:01.837Z,1010.53
2019-02-17T07:21:12.740Z,1010.46
2019-02-17T07:22:22.810Z,1010.5
2019-02-17T07:23:32.886Z,1010.48
2019-02-17T07:24:42.948Z,1010.5
2019-02-17T07:25:53.045Z,1010.48
2019-02-17T07:27:03.152Z,1010.49
2019-02-17T07:28:13.376Z,1010.51
2019-02-17T07:29:23.510Z,1010.5
2019-02-17T07:30:33.316Z,1010.59
2019-02-17T07:31:43.375Z,1010.57
2019-02-17T07:32:53.469Z,1010.55
2019-02-17T07:34:03.261Z,1010.54
2019-02-17T07:35:13.428Z,1010.59
2019-02-17T07:36:23.502Z,1010.55
2019-02-17T07:37:34.034Z,1010.56
2019-02-17T07:38:44.150Z,1010.55
2019-02-17T07:39:54.194Z,1010.51
2019-02-17T07:41:05.111Z,1010.5
2019-02-17T07:42:15.212Z,1010.52
2019-02-17T07:43:25.330Z,1010.5
2019-02-17T07:44:35.412Z,1010.53
2019-02-17T07:45:45.863Z,1010.53
2019-02-17T07:46:55.919Z,1010.55
2019-02-17T07:48:05.714Z,1010.54
2019-02-17T07:49:15.550Z,1010.54
2019-02-17T07:50:25.373Z,1010.53
2019-02-17T07:51:35.190Z,1010.54
2019-02-17T07:52:44.989Z,1010.53
2019-02-17T07:53:54.787Z,1010.57
2019-02-17T07:55:04.929Z,1010.58
2019-02-17T07:56:15.008Z,1010.55
2019-02-17T07:57:25.324Z,1010.53
2019-02-17T07:58:35.172Z,1010.55
2019-02-17T07:59:45.287Z,1010.54
2019-02-17T08:00:55.389Z,1010.55
2019-02-17T08:02:07.819Z,1010.57
2019-02-17T08:03:17.631Z,1010.62
2019-02-17T08:04:27.684Z,1010.58
2019-02-17T08:05:37.511Z,1010.56
2019-02-17T08:06:47.649Z,1010.59
2019-02-17T08:07:57.725Z,1010.61
2019-02-17T08:09:08.030Z,1010.63
2019-02-17T08:10:18.095Z,1010.59
2019-02-17T08:11:28.164Z,1010.56
2019-02-17T08:12:37.968Z,1010.57
2019-02-17T08:13:47.565Z,1010.58
2019-02-17T08:14:57.381Z,1010.61
2019-02-17T08:16:07.925Z,1010.61
2019-02-17T08:17:17.740Z,1010.62
2019-02-17T08:18:27.659Z,1010.6
2019-02-17T08:19:37.680Z,1010.64
2019-02-17T08:20:47.838Z,1010.65
2019-02-17T08:21:57.923Z,1010.64
2019-02-17T08:23:09.957Z,1010.63
2019-02-17T08:24:20.017Z,1010.65
2019-02-17T08:25:29.829Z,1010.6
2019-02-17T08:26:39.652Z,1010.63
2019-02-17T08:27:49.689Z,1010.65
2019-02-17T08:28:59.740Z,1010.64
2019-02-17T08:30:10.203Z,1010.58
2019-02-17T08:31:20.264Z,1010.59
2019-02-17T08:32:30.068Z,1010.59
2019-02-17T08:33:40.327Z,1010.6
2019-02-17T08:34:50.158Z,1010.62
2019-02-17T08:36:02.703Z,1010.58
2019-02-17T08:37:12.487Z,1010.61
2019-02-17T08:38:22.607Z,1010.67
2019-02-17T08:39:32.775Z,1010.64
2019-02-17T08:40:42.850Z,1010.65
2019-02-17T08:41:52.908Z,1010.68
2019-02-17T08:43:02.966Z,1010.69
2019-02-17T08:44:13.077Z,1010.66
2019-02-17T08:45:23.145Z,1010.67
2019-02-17T08:46:32.992Z,1010.72
2019-02-17T08:47:45.624Z,1010.66
2019-02-17T08:48:55.770Z,1010.7
2019-02-17T08:50:05.866Z,1010.72
2019-02-17T08:51:15.986Z,1010.64
2019-02-17T08:52:26.036Z,1010.66
2019-02-17T08:53:36.206Z,1010.61
2019-02-17T08:54:46.032Z,1010.58
2019-02-17T08:55:56.107Z,1010.6
2019-02-17T08:57:06.212Z,1010.6
2019-02-17T08:58:16.273Z,1010.58
2019-02-17T08:59:26.582Z,1010.54
2019-02-17T09:00:36.712Z,1010.57
2019-02-17T09:01:46.797Z,1010.56
2019-02-17T09:03:06.209Z,1010.55
2019-02-17T09:04:16.273Z,1010.6
2019-02-17T09:05:26.124Z,1010.58
2019-02-17T09:06:46.685Z,1010.57
2019-02-17T09:07:56.916Z,1010.52
2019-02-17T09:09:09.361Z,1010.54
2019-02-17T09:10:19.724Z,1010.56
2019-02-17T09:11:29.798Z,1010.5
2019-02-17T09:12:39.863Z,1010.54
2019-02-17T09:13:49.919Z,1010.54
2019-02-17T09:14:59.961Z,1010.57
2019-02-17T09:16:10.041Z,1010.55
2019-02-17T09:17:20.103Z,1010.59
2019-02-17T09:18:30.282Z,1010.59
2019-02-17T09:19:40.361Z,1010.6
2019-02-17T09:20:50.451Z,1010.64
2019-02-17T09:22:00.837Z,1010.69
2019-02-17T09:23:10.973Z,1010.67
2019-02-17T09:24:21.164Z,1010.69
2019-02-17T09:25:31.316Z,1010.59
2019-02-17T09:26:41.665Z,1010.59
2019-02-17T09:27:51.468Z,1010.6
2019-02-17T09:29:01.307Z,1010.61
2019-02-17T09:30:11.392Z,1010.61
2019-02-17T09:31:21.211Z,1010.63
2019-02-17T09:32:31.032Z,1010.58
2019-02-17T09:33:40.931Z,1010.6
2019-02-17T09:34:51.006Z,1010.62
2019-02-17T09:36:02.373Z,1010.6
2019-02-17T09:37:12.530Z,1010.62
2019-02-17T09:38:22.588Z,1010.63
2019-02-17T09:39:32.651Z,1010.62
2019-02-17T09:40:42.747Z,1010.56
2019-02-17T09:41:52.807Z,1010.65
2019-02-17T09:43:02.869Z,1010.63
2019-02-17T09:44:12.662Z,1010.65
2019-02-17T09:45:22.504Z,1010.61
2019-02-17T09:46:32.597Z,1010.62
2019-02-17T09:47:42.896Z,1010.62
2019-02-17T09:48:53.053Z,1010.59
2019-02-17T09:50:05.891Z,1010.58
2019-02-17T09:51:15.950Z,1010.56
2019-02-17T09:52:25.766Z,1010.55
2019-02-17T09:53:35.848Z,1010.58
2019-02-17T09:54:45.918Z,1010.57
2019-02-17T09:55:56.002Z,1010.58
2019-02-17T09:57:07.693Z,1010.52
2019-02-17T09:58:17.763Z,1010.54
2019-02-17T09:59:27.829Z,1010.53
2019-02-17T10:00:37.896Z,1010.54
2019-02-17T10:01:48.119Z,1010.52
2019-02-17T10:02:57.953Z,1010.52
2019-02-17T10:04:08.046Z,1010.51
2019-02-17T10:05:18.109Z,1010.48
2019-02-17T10:06:27.680Z,1010.43
2019-02-17T10:07:37.857Z,1010.46
2019-02-17T10:08:48.008Z,1010.44
2019-02-17T10:09:57.963Z,1010.44
2019-02-17T10:11:08.734Z,1010.42
2019-02-17T10:12:18.900Z,1010.41
2019-02-17T10:13:28.455Z,1010.39
2019-02-17T10:14:38.512Z,1010.37
2019-02-17T10:15:48.581Z,1010.34
2019-02-17T10:16:58.754Z,1010.37
2019-02-17T10:18:08.807Z,1010.35
2019-02-17T10:19:19.085Z,1010.33
2019-02-17T10:20:28.973Z,1010.3
2019-02-17T10:21:39.063Z,1010.35
2019-02-17T10:22:49.167Z,1010.29
2019-02-17T10:23:58.958Z,1010.34
2019-02-17T10:25:09.058Z,1010.36
2019-02-17T10:26:18.890Z,1010.33
2019-02-17T10:27:28.977Z,1010.33
2019-02-17T10:28:42.219Z,1010.32
